This is the latest recevied weather packets stored in our database for station/object EA5CEE. If no packets are shown the sender has not sent any weather packets the latest 10 day(s).
| Time | Temp. | Humidity | Pressure | Rain* | Wind** | Luminosity | Snow |
|---|---|---|---|---|---|---|---|
| 1777904130 | 21.67° C | 75% | 1009.4 hPa | 0 mm | - | - | - |
| 1777903225 | 21.11° C | 80% | 1009.6 hPa | 0 mm | - | - | - |
| 1777902323 | 20° C | 84% | 1009.8 hPa | 0 mm | - | - | - |
| 1777901422 | 20.56° C | 81% | 1010.1 hPa | 0 mm | - | - | - |
| 1777900520 | 21.11° C | 81% | 1010.2 hPa | 0 mm | - | - | - |
| 1777899619 | 21.11° C | 80% | 1010.2 hPa | 0 mm | - | - | - |
| 1777898717 | 21.11° C | 80% | 1010.3 hPa | 0 mm | - | - | - |
| 1777897816 | 21.11° C | 79% | 1010.3 hPa | 0 mm | - | - | - |
| 1777896914 | 21.11° C | 82% | 1010.5 hPa | 0 mm | - | - | - |
| 1777896012 | 21.11° C | 82% | 1010.9 hPa | 0 mm | - | - | - |
| 1777895109 | 21.11° C | 83% | 1011.1 hPa | 0 mm | - | - | - |
| 1777894208 | 20.56° C | 82% | 1011.2 hPa | 0 mm | - | - | - |
| 1777893315 | 21.11° C | 80% | 1011.4 hPa | 0 mm | - | - | - |
| 1777892408 | 21.11° C | 79% | 1011.4 hPa | 0 mm | - | - | - |
| 1777891501 | 20.56° C | 80% | 1011.6 hPa | 0 mm | - | - | - |
| 1777890658 | 20° C | 83% | 1011.8 hPa | 0 mm | - | - | - |
| 1777889755 | 19.44° C | 84% | 1011.8 hPa | 0 mm | - | - | - |
| 1777888862 | 18.89° C | 88% | 1011.9 hPa | 0 mm | - | - | - |
| 1777887949 | 18.33° C | 91% | 1011.7 hPa | 0 mm | - | - | - |
| 1777887060 | 17.78° C | 94% | 1011.9 hPa | 0 mm | - | - | - |
| 1777886145 | 17.78° C | 96% | 1011.9 hPa | 0 mm | - | - | - |
| 1777885242 | 17.78° C | 95% | 1011.9 hPa | 0 mm | - | - | - |
| 1777884350 | 17.78° C | 95% | 1011.9 hPa | 0 mm | - | - | - |
| 1777883440 | 17.78° C | 95% | 1011.9 hPa | 0 mm | - | - | - |
| 1777882539 | 17.78° C | 95% | 1012 hPa | 0 mm | - | - | - |
* Rain latest hour (hover to see other rain measurements)
** Current wind speed in m/s (hover to see current wind gust speed)